Time;durP1;ratioP1;P1;durP2;ratioP2;P2;SDS_P1;SDS_P2;PMS_P1;PMS_P2;Temp;Humidity;BMP_temperature;BMP_pressure;BME280_temperature;BME280_humidity;BME280_pressure;Samples;Min_cycle;Max_cycle;Signal;HPM_P1;HPM_P2
2022/05/01 00:01:23;;;;;;;;;;;;;;;11.13;100.00;99796.34;5058660;28;19931;-79
2022/05/01 00:03:50;;;;;;;;;;;;;;;11.17;100.00;99794.31;5076386;28;19935;-79
2022/05/01 00:06:19;;;;;;;;;;;;;;;11.28;100.00;99793.06;5076205;28;19932;-79
2022/05/01 00:08:46;;;;;;;;;;;;;;;11.45;100.00;99786.50;5058574;28;20399;-79
2022/05/01 00:11:13;;;;;;;;;;;;;;;11.25;100.00;99791.09;5076054;28;19967;-79
2022/05/01 00:13:43;;;;;;;;;;;;;;;11.32;100.00;99781.81;5058717;28;20050;-79
2022/05/01 00:16:11;;;;;;;;;;;;;;;11.38;100.00;99788.56;5058342;28;19997;-79
2022/05/01 00:18:39;;;;;;;;;;;;;;;11.43;100.00;99783.34;5076066;28;19932;-79
2022/05/01 00:21:06;;;;;;;;;;;;;;;11.31;100.00;99775.44;5076191;28;19925;-79
2022/05/01 00:23:33;;;;;;;;;;;;;;;11.31;100.00;99769.84;5058170;28;19932;-79
2022/05/01 00:26:02;;;;;;;;;;;;;;;11.15;100.00;99775.16;5075872;28;19929;-79
2022/05/01 00:28:30;;;;;;;;;;;;;;;11.51;100.00;99773.66;5075913;28;19925;-79
2022/05/01 00:30:57;;;;;;;;;;;;;;;11.68;100.00;99761.56;5075922;28;19967;-79
2022/05/01 00:36:26;;;;;;;;;;;;;;;11.92;100.00;99768.91;5075672;28;20346;-79
2022/05/01 00:38:53;;;;;;;;;;;;;;;11.97;100.00;99762.06;5041388;28;19978;-79
2022/05/01 00:41:23;;;;;;;;;;;;;;;12.10;100.00;99757.53;5058096;28;19928;-79
2022/05/01 00:44:08;;;;;;;;;;;;;;;11.92;100.00;99759.75;5074572;28;19924;-79
2022/05/01 00:46:39;;;;;;;;;;;;;;;11.78;100.00;99760.69;5075575;28;19924;-79
2022/05/01 00:49:10;;;;;;;;;;;;;;;11.82;100.00;99753.03;5057771;28;20011;-79
2022/05/01 00:51:43;;;;;;;;;;;;;;;11.50;100.00;99746.91;5075591;28;20022;-79
2022/05/01 00:54:11;;;;;;;;;;;;;;;11.70;100.00;99745.16;5075224;28;20303;-79
2022/05/01 00:56:43;;;;;;;;;;;;;;;11.57;100.00;99746.06;5075367;28;19931;-79
2022/05/01 00:59:10;;;;;;;;;;;;;;;11.27;100.00;99752.28;5057737;28;20394;-79
2022/05/01 01:01:40;;;;;;;;;;;;;;;11.49;100.00;99747.31;5075366;28;19928;-79
2022/05/01 01:04:07;;;;;;;;;;;;;;;11.43;100.00;99746.16;5057667;28;20335;-79
2022/05/01 01:06:34;;;;;;;;;;;;;;;11.15;100.00;99749.97;5057295;28;19931;-79
2022/05/01 01:09:03;;;;;;;;;;;;;;;11.11;100.00;99746.44;5074938;28;20023;-79
2022/05/01 01:11:30;;;;;;;;;;;;;;;10.95;100.00;99743.31;5075080;28;20501;-79
2022/05/01 01:14:03;;;;;;;;;;;;;;;10.80;100.00;99744.63;5057344;28;19924;-79
2022/05/01 01:16:30;;;;;;;;;;;;;;;10.89;100.00;99745.78;5057500;28;19932;-79
2022/05/01 01:18:57;;;;;;;;;;;;;;;10.54;100.00;99742.41;5075060;28;19975;-79
2022/05/01 01:21:24;;;;;;;;;;;;;;;10.77;100.00;99739.84;5074990;28;20387;-79
2022/05/01 01:23:52;;;;;;;;;;;;;;;11.03;100.00;99741.31;5074701;28;19925;-79
2022/05/01 01:26:21;;;;;;;;;;;;;;;11.62;100.00;99735.22;5074773;28;20026;-79
2022/05/01 01:28:48;;;;;;;;;;;;;;;11.86;100.00;99741.81;5057007;28;19924;-79
2022/05/01 01:34:05;;;;;;;;;;;;;;;11.99;100.00;99721.25;5074804;28;20033;-79
2022/05/01 01:36:35;;;;;;;;;;;;;;;11.65;100.00;99716.78;5074318;28;19931;-79
2022/05/01 01:39:03;;;;;;;;;;;;;;;11.42;100.00;99716.59;5074468;28;20399;-79
2022/05/01 01:41:31;;;;;;;;;;;;;;;11.84;100.00;99713.41;5074505;28;20311;-79
2022/05/01 01:43:59;;;;;;;;;;;;;;;11.66;100.00;99712.81;5040074;28;19932;-79
2022/05/01 01:46:26;;;;;;;;;;;;;;;11.81;100.00;99715.06;5074414;28;19924;-79
2022/05/01 01:48:53;;;;;;;;;;;;;;;12.02;100.00;99708.41;5056536;28;19925;-79
2022/05/01 01:51:21;;;;;;;;;;;;;;;11.99;100.00;99707.25;5074164;28;19974;-79
2022/05/01 01:53:47;;;;;;;;;;;;;;;12.02;100.00;99703.59;5074183;28;19932;-79
2022/05/01 01:56:15;;;;;;;;;;;;;;;11.97;100.00;99698.47;5074047;28;19924;-79
2022/05/01 01:58:42;;;;;;;;;;;;;;;12.05;100.00;99697.16;5074172;28;19924;-79
2022/05/01 02:01:12;;;;;;;;;;;;;;;12.23;100.00;99705.34;5056299;28;19924;-79
2022/05/01 02:03:39;;;;;;;;;;;;;;;12.17;100.00;99701.41;5074056;28;19955;-79
2022/05/01 02:06:08;;;;;;;;;;;;;;;11.57;100.00;99693.66;5073625;28;19928;-79
2022/05/01 02:08:36;;;;;;;;;;;;;;;11.74;100.00;99692.72;5039936;28;19939;-79
2022/05/01 02:11:04;;;;;;;;;;;;;;;11.74;100.00;99697.53;5074051;28;19925;-79
2022/05/01 02:13:33;;;;;;;;;;;;;;;11.83;100.00;99695.81;5039914;28;19936;-79
2022/05/01 02:16:00;;;;;;;;;;;;;;;11.93;100.00;99689.31;5073870;28;19924;-79
2022/05/01 02:18:27;;;;;;;;;;;;;;;12.01;100.00;99690.03;5073742;28;19952;-79
2022/05/01 02:23:40;;;;;;;;;;;;;;;11.27;100.00;99687.16;5073860;28;19974;-79
2022/05/01 02:26:07;;;;;;;;;;;;;;;11.01;100.00;99687.78;5073634;28;19925;-79
2022/05/01 02:28:36;;;;;;;;;;;;;;;11.29;100.00;99688.34;5073667;28;19931;-79
2022/05/01 02:31:03;;;;;;;;;;;;;;;11.01;100.00;99683.00;5073585;28;19925;-79
2022/05/01 02:33:30;;;;;;;;;;;;;;;11.20;100.00;99682.41;5073576;28;19978;-79
2022/05/01 02:35:57;;;;;;;;;;;;;;;11.27;100.00;99679.56;5073042;28;19955;-79
2022/05/01 02:38:24;;;;;;;;;;;;;;;11.44;100.00;99684.19;5055816;28;19924;-79
2022/05/01 02:40:51;;;;;;;;;;;;;;;11.47;100.00;99671.38;5073527;28;20002;-79
2022/05/01 02:43:18;;;;;;;;;;;;;;;11.33;100.00;99666.69;5073408;28;19932;-79
2022/05/01 02:45:45;;;;;;;;;;;;;;;11.20;100.00;99665.63;5055711;28;19932;-79
2022/05/01 02:48:13;;;;;;;;;;;;;;;11.27;100.00;99662.75;5073342;28;19925;-79
2022/05/01 02:50:41;;;;;;;;;;;;;;;11.21;100.00;99655.25;5055565;28;19934;-79
2022/05/01 02:53:09;;;;;;;;;;;;;;;11.13;100.00;99656.50;5055352;28;20440;-78
2022/05/01 02:55:36;;;;;;;;;;;;;;;11.08;100.00;99663.34;5038858;28;19963;-78
2022/05/01 02:58:03;;;;;;;;;;;;;;;11.18;100.00;99659.66;5072962;28;19931;-79
2022/05/01 03:00:30;;;;;;;;;;;;;;;11.10;100.00;99652.56;5038936;28;19986;-79
2022/05/01 03:02:58;;;;;;;;;;;;;;;11.23;100.00;99656.41;5073148;28;19924;-79
2022/05/01 03:05:25;;;;;;;;;;;;;;;11.23;100.00;99656.41;5054916;28;19930;-79
2022/05/01 03:07:55;;;;;;;;;;;;;;;11.45;100.00;99657.78;5072612;28;20288;-79
2022/05/01 03:10:23;;;;;;;;;;;;;;;11.69;100.00;99651.16;5055210;28;19978;-78
2022/05/01 03:12:50;;;;;;;;;;;;;;;11.50;100.00;99650.94;5055149;28;19931;-79
2022/05/01 03:15:17;;;;;;;;;;;;;;;11.83;100.00;99650.22;5073081;28;19995;-79
2022/05/01 03:23:16;;;;;;;;;;;;;;;11.79;100.00;99643.88;5072975;28;19925;-79
2022/05/01 03:25:43;;;;;;;;;;;;;;;11.80;100.00;99646.25;5055048;28;19924;-79
2022/05/01 03:28:10;;;;;;;;;;;;;;;12.02;100.00;99646.78;5054986;28;20367;-79
2022/05/01 03:30:37;;;;;;;;;;;;;;;11.86;100.00;99647.38;5072856;28;19950;-79
2022/05/01 03:33:07;;;;;;;;;;;;;;;11.74;100.00;99639.50;5054661;28;19925;-79
2022/05/01 03:35:36;;;;;;;;;;;;;;;11.72;100.00;99639.13;5072602;28;19924;-79
2022/05/01 03:38:04;;;;;;;;;;;;;;;11.84;100.00;99638.63;5072650;28;19932;-79
2022/05/01 03:40:35;;;;;;;;;;;;;;;11.75;100.00;99638.31;5072753;28;20069;-79
2022/05/01 03:43:05;;;;;;;;;;;;;;;11.87;100.00;99632.19;5072811;28;19929;-79
2022/05/01 03:45:32;;;;;;;;;;;;;;;11.80;100.00;99621.03;5054918;28;19929;-79
2022/05/01 03:47:59;;;;;;;;;;;;;;;11.89;100.00;99615.72;5072333;28;19964;-79
2022/05/01 03:50:28;;;;;;;;;;;;;;;11.70;100.00;99607.97;5072587;28;20269;-79
2022/05/01 03:52:55;;;;;;;;;;;;;;;11.90;100.00;99608.13;5072716;28;19931;-79
2022/05/01 03:55:22;;;;;;;;;;;;;;;11.82;100.00;99618.63;5072602;28;19959;-79
2022/05/01 03:57:49;;;;;;;;;;;;;;;12.24;100.00;99600.47;5072499;28;19931;-78
2022/05/01 04:00:20;;;;;;;;;;;;;;;12.21;100.00;99601.28;5038232;28;19966;-79
2022/05/01 04:02:47;;;;;;;;;;;;;;;12.16;100.00;99602.56;5054425;28;19928;-79
2022/05/01 04:05:14;;;;;;;;;;;;;;;11.88;100.00;99596.56;5054450;28;19924;-79
2022/05/01 04:07:42;;;;;;;;;;;;;;;12.16;100.00;99596.19;5072465;28;19930;-79
2022/05/01 04:10:10;;;;;;;;;;;;;;;12.27;100.00;99591.19;5054760;28;20394;-79
2022/05/01 04:12:41;;;;;;;;;;;;;;;12.33;100.00;99592.31;5072722;28;19925;-79
2022/05/01 04:15:09;;;;;;;;;;;;;;;12.33;100.00;99590.31;5072512;28;19932;-79
2022/05/01 04:17:37;;;;;;;;;;;;;;;11.94;100.00;99590.06;5073100;28;19960;-79
2022/05/01 04:20:06;;;;;;;;;;;;;;;12.23;100.00;99585.66;5058317;28;19924;-79
2022/05/01 04:22:37;;;;;;;;;;;;;;;12.42;100.00;99587.78;5058467;28;19924;-78
2022/05/01 04:25:14;;;;;;;;;;;;;;;12.44;100.00;99588.16;5076008;28;19996;-78
2022/05/01 04:27:42;;;;;;;;;;;;;;;12.37;100.00;99588.25;5075930;28;19925;-79
2022/05/01 04:30:11;;;;;;;;;;;;;;;12.57;100.00;99577.16;5075717;28;19924;-78
2022/05/01 04:32:49;;;;;;;;;;;;;;;12.57;100.00;99582.75;5075827;28;19925;-79
2022/05/01 04:35:37;;;;;;;;;;;;;;;12.41;100.00;99575.00;5075895;28;19924;-79
2022/05/01 04:38:05;;;;;;;;;;;;;;;12.50;100.00;99572.44;5075723;28;19924;-79
2022/05/01 04:40:42;;;;;;;;;;;;;;;12.14;100.00;99582.59;5075702;28;19929;-79
2022/05/01 04:43:13;;;;;;;;;;;;;;;11.85;100.00;99580.59;5057791;28;20300;-79
2022/05/01 04:45:41;;;;;;;;;;;;;;;10.93;100.00;99586.38;5075463;28;19924;-79
2022/05/01 04:48:09;;;;;;;;;;;;;;;10.99;100.00;99585.50;5041092;28;19924;-79
2022/05/01 04:53:12;;;;;;;;;;;;;;;10.95;100.00;99597.94;5110839;27;19913;-78
2022/05/01 04:55:40;;;;;;;;;;;;;;;11.26;100.00;99588.44;5110949;28;19932;-78
2022/05/01 04:58:10;;;;;;;;;;;;;;;11.57;100.00;99592.13;5109732;28;20513;-78
2022/05/01 05:00:38;;;;;;;;;;;;;;;11.69;100.00;99580.41;5110322;28;19924;-78
2022/05/01 05:03:05;;;;;;;;;;;;;;;11.88;100.00;99582.53;5109531;28;20023;-78
2022/05/01 05:05:34;;;;;;;;;;;;;;;11.84;100.00;99584.63;5110711;28;20402;-78
2022/05/01 05:10:48;;;;;;;;;;;;;;;12.06;100.00;99575.50;5110450;28;19959;-78
2022/05/01 05:13:23;;;;;;;;;;;;;;;12.09;100.00;99573.84;5092557;28;20303;-78
2022/05/01 05:15:50;;;;;;;;;;;;;;;12.09;100.00;99571.84;5109023;28;19930;-78
2022/05/01 05:18:18;;;;;;;;;;;;;;;11.66;100.00;99573.63;5110574;28;19924;-78
2022/05/01 05:20:45;;;;;;;;;;;;;;;12.08;100.00;99567.47;5110505;28;19930;-78
2022/05/01 05:23:13;;;;;;;;;;;;;;;12.12;100.00;99571.00;5110308;28;19977;-78
2022/05/01 05:25:40;;;;;;;;;;;;;;;12.19;100.00;99573.69;5110280;28;19932;-78
2022/05/01 05:28:08;;;;;;;;;;;;;;;12.27;100.00;99578.00;5109960;28;20002;-78
2022/05/01 05:30:35;;;;;;;;;;;;;;;12.22;100.00;99574.88;5110117;28;20390;-78
2022/05/01 05:33:03;;;;;;;;;;;;;;;12.08;100.00;99575.09;5108906;28;19947;-78
2022/05/01 05:35:30;;;;;;;;;;;;;;;12.33;100.00;99579.09;5110110;28;19928;-78
2022/05/01 05:37:57;;;;;;;;;;;;;;;12.15;100.00;99586.97;5110038;28;20384;-78
2022/05/01 05:40:25;;;;;;;;;;;;;;;11.74;100.00;99585.56;5110042;28;19930;-78
2022/05/01 05:42:52;;;;;;;;;;;;;;;11.63;100.00;99596.84;5109651;28;19924;-78
2022/05/01 05:45:19;;;;;;;;;;;;;;;11.68;100.00;99598.38;5091854;28;19924;-78
2022/05/01 05:47:46;;;;;;;;;;;;;;;11.72;100.00;99601.97;5108696;28;19924;-78
2022/05/01 05:50:14;;;;;;;;;;;;;;;11.80;100.00;99595.84;5109891;28;20267;-78
2022/05/01 05:52:41;;;;;;;;;;;;;;;11.94;100.00;99601.28;5108282;28;19928;-78
2022/05/01 05:55:09;;;;;;;;;;;;;;;12.09;100.00;99591.47;5109840;28;19924;-78
2022/05/01 05:57:36;;;;;;;;;;;;;;;12.23;100.00;99596.06;5108324;28;19931;-78
2022/05/01 06:00:04;;;;;;;;;;;;;;;12.26;100.00;99598.84;5109642;28;20318;-78
2022/05/01 06:02:38;;;;;;;;;;;;;;;11.84;100.00;99590.22;5106808;28;20402;-78
2022/05/01 06:05:06;;;;;;;;;;;;;;;11.75;100.00;99599.13;5094258;28;20390;-78
2022/05/01 06:07:33;;;;;;;;;;;;;;;11.64;100.00;99597.66;5095884;28;20379;-78
2022/05/01 06:10:00;;;;;;;;;;;;;;;11.47;100.00;99605.00;5078029;28;20388;-78
2022/05/01 06:12:28;;;;;;;;;;;;;;;11.33;100.00;99598.78;5094361;28;19977;-78
2022/05/01 06:14:55;;;;;;;;;;;;;;;11.25;100.00;99609.25;5094654;28;20299;-78
2022/05/01 06:17:22;;;;;;;;;;;;;;;11.19;100.00;99605.31;5095846;28;20375;-78
2022/05/01 06:19:49;;;;;;;;;;;;;;;11.40;100.00;99601.50;5095644;28;20375;-78
2022/05/01 06:22:17;;;;;;;;;;;;;;;11.13;100.00;99612.56;5094505;28;19924;-78
2022/05/01 06:24:44;;;;;;;;;;;;;;;11.06;100.00;99614.63;5094492;28;20367;-78
2022/05/01 06:27:11;;;;;;;;;;;;;;;11.12;100.00;99605.38;5095241;28;20418;-78
2022/05/01 06:29:37;;;;;;;;;;;;;;;11.07;100.00;99614.22;5094348;28;19924;-78
2022/05/01 06:32:05;;;;;;;;;;;;;;;11.25;100.00;99614.84;5094201;28;19931;-78
2022/05/01 06:34:35;;;;;;;;;;;;;;;11.26;100.00;99610.84;5095394;28;19985;-78
2022/05/01 06:37:02;;;;;;;;;;;;;;;11.16;100.00;99617.34;5095375;28;20387;-78
2022/05/01 06:39:29;;;;;;;;;;;;;;;11.14;100.00;99619.75;5095421;28;19931;-78
2022/05/01 06:41:56;;;;;;;;;;;;;;;11.07;100.00;99621.81;5094978;28;19934;-78
2022/05/01 06:44:23;;;;;;;;;;;;;;;10.80;100.00;99621.63;5095293;28;20275;-78
2022/05/01 06:46:51;;;;;;;;;;;;;;;11.19;100.00;99619.31;5095189;28;19932;-78
2022/05/01 06:49:18;;;;;;;;;;;;;;;11.24;100.00;99623.66;5093997;28;20414;-78
2022/05/01 06:51:45;;;;;;;;;;;;;;;11.04;100.00;99615.06;5094994;28;19924;-78
2022/05/01 06:54:12;;;;;;;;;;;;;;;11.38;100.00;99615.91;5093786;28;19931;-78
2022/05/01 06:56:41;;;;;;;;;;;;;;;11.85;100.00;99614.19;5094717;28;20358;-79
2022/05/01 06:59:08;;;;;;;;;;;;;;;11.86;100.00;99607.41;5095009;28;20379;-78
2022/05/01 07:01:35;;;;;;;;;;;;;;;12.10;100.00;99595.84;5093794;28;19925;-79
2022/05/01 07:04:02;;;;;;;;;;;;;;;12.11;100.00;99597.44;5094868;28;20448;-79
2022/05/01 07:06:29;;;;;;;;;;;;;;;11.85;100.00;99592.59;5077091;28;20010;-79
2022/05/01 07:08:56;;;;;;;;;;;;;;;11.77;100.00;99591.09;5093509;28;20379;-79
2022/05/01 07:11:24;;;;;;;;;;;;;;;11.98;100.00;99587.25;5094460;28;19931;-79
2022/05/01 07:13:51;;;;;;;;;;;;;;;12.34;100.00;99594.69;5094643;28;20283;-79
2022/05/01 07:16:20;;;;;;;;;;;;;;;12.52;100.00;99598.06;5092559;28;19924;-79
2022/05/01 07:18:47;;;;;;;;;;;;;;;12.54;100.00;99597.63;5094544;28;20011;-79
2022/05/01 07:21:19;;;;;;;;;;;;;;;12.54;100.00;99601.22;5094593;28;19931;-79
2022/05/01 07:23:46;;;;;;;;;;;;;;;12.56;100.00;99604.38;5093231;28;20356;-79
2022/05/01 07:26:13;;;;;;;;;;;;;;;12.80;100.00;99598.81;5094071;28;20379;-79
2022/05/01 07:28:41;;;;;;;;;;;;;;;12.67;100.00;99593.81;5094391;28;19935;-79
2022/05/01 07:31:08;;;;;;;;;;;;;;;12.88;100.00;99589.03;5094412;28;19967;-79
2022/05/01 07:33:35;;;;;;;;;;;;;;;12.72;100.00;99579.28;5094221;28;19924;-79
2022/05/01 07:36:03;;;;;;;;;;;;;;;12.48;100.00;99586.09;5093015;28;19924;-79
2022/05/01 07:38:31;;;;;;;;;;;;;;;12.68;100.00;99584.16;5094112;28;19986;-79
2022/05/01 07:40:58;;;;;;;;;;;;;;;12.54;100.00;99575.97;5094005;28;19928;-79
2022/05/01 07:43:25;;;;;;;;;;;;;;;12.43;100.00;99583.75;5092948;28;19923;-79
2022/05/01 07:45:52;;;;;;;;;;;;;;;12.13;100.00;99575.38;5094002;28;19924;-79
2022/05/01 07:48:20;;;;;;;;;;;;;;;12.05;100.00;99579.53;5094087;28;19930;-79
2022/05/01 07:50:47;;;;;;;;;;;;;;;12.44;100.00;99579.75;5093770;28;19924;-79
2022/05/01 07:53:16;;;;;;;;;;;;;;;12.94;100.00;99584.53;5093839;28;19928;-79
2022/05/01 07:55:43;;;;;;;;;;;;;;;13.26;100.00;99582.00;5094164;28;19947;-79
2022/05/01 07:58:10;;;;;;;;;;;;;;;13.46;100.00;99580.81;5093838;28;20061;-78
2022/05/01 08:00:38;;;;;;;;;;;;;;;13.62;100.00;99583.69;5093834;28;20018;-79
2022/05/01 08:05:52;;;;;;;;;;;;;;;14.04;100.00;99584.84;5092567;28;19928;-78
2022/05/01 08:08:19;;;;;;;;;;;;;;;13.99;100.00;99571.28;5093597;28;19924;-82
2022/05/01 08:10:46;;;;;;;;;;;;;;;14.02;100.00;99564.78;5093527;28;20444;-78
2022/05/01 08:13:14;;;;;;;;;;;;;;;14.12;100.00;99577.81;5092370;28;19924;-79
2022/05/01 08:15:41;;;;;;;;;;;;;;;14.22;100.00;99579.63;5093799;28;19925;-79
2022/05/01 08:21:07;;;;;;;;;;;;;;;14.20;100.00;99570.81;5093509;28;19924;-79
2022/05/01 08:23:36;;;;;;;;;;;;;;;14.04;100.00;99570.78;5075057;28;19931;-79
2022/05/01 08:26:06;;;;;;;;;;;;;;;14.06;100.00;99565.50;5091996;28;20324;-79
2022/05/01 08:28:53;;;;;;;;;;;;;;;14.03;100.00;99560.75;5093325;28;19967;-79
2022/05/01 08:31:21;;;;;;;;;;;;;;;14.09;100.00;99573.06;5093302;28;20032;-79
2022/05/01 08:33:48;;;;;;;;;;;;;;;14.00;100.00;99573.66;5093114;28;19972;-79
2022/05/01 08:36:15;;;;;;;;;;;;;;;14.20;100.00;99570.81;5093088;28;19924;-79
2022/05/01 08:38:43;;;;;;;;;;;;;;;14.21;100.00;99561.94;5091710;28;20007;-79
2022/05/01 08:41:09;;;;;;;;;;;;;;;14.25;100.00;99573.16;5092061;28;19944;-79
2022/05/01 08:43:37;;;;;;;;;;;;;;;14.23;100.00;99567.97;5093222;28;19924;-79
2022/05/01 08:46:07;;;;;;;;;;;;;;;14.06;100.00;99565.50;5091755;28;19924;-79
2022/05/01 08:48:39;;;;;;;;;;;;;;;14.34;100.00;99567.72;5093134;28;19928;-78
2022/05/01 08:51:07;;;;;;;;;;;;;;;14.39;100.00;99573.59;5092719;28;20350;-79
2022/05/01 08:53:36;;;;;;;;;;;;;;;14.58;100.00;99566.34;5074550;28;20024;-79
2022/05/01 08:56:07;;;;;;;;;;;;;;;14.66;100.00;99567.72;5093027;28;19947;-79
2022/05/01 08:58:35;;;;;;;;;;;;;;;14.42;100.00;99566.31;5092980;28;19931;-79
2022/05/01 09:01:02;;;;;;;;;;;;;;;14.08;100.00;99571.50;5092879;28;19924;-79
2022/05/01 09:03:30;;;;;;;;;;;;;;;14.03;100.00;99572.78;5092792;28;19931;-79
2022/05/01 09:05:57;;;;;;;;;;;;;;;14.53;100.00;99569.66;5091385;28;19932;-80
2022/05/01 09:08:25;;;;;;;;;;;;;;;14.37;100.00;99569.66;5091437;28;19944;-80
2022/05/01 09:10:52;;;;;;;;;;;;;;;14.02;100.00;99570.41;5092639;28;19924;-79
2022/05/01 09:13:25;;;;;;;;;;;;;;;13.91;100.00;99569.84;5092818;28;19946;-79
2022/05/01 09:15:52;;;;;;;;;;;;;;;13.31;100.00;99573.09;5091576;28;20291;-79
2022/05/01 09:18:21;;;;;;;;;;;;;;;13.70;100.00;99571.09;5091506;28;20006;-79
2022/05/01 09:21:04;;;;;;;;;;;;;;;13.89;100.00;99573.09;5091239;28;19932;-80
2022/05/01 09:23:50;;;;;;;;;;;;;;;14.65;100.00;99568.16;5092706;28;20394;-80
2022/05/01 09:26:18;;;;;;;;;;;;;;;14.72;100.00;99568.81;5091116;28;19927;-79
2022/05/01 09:28:52;;;;;;;;;;;;;;;14.76;100.00;99563.88;5092370;28;19924;-80
2022/05/01 09:31:38;;;;;;;;;;;;;;;15.19;100.00;99566.41;5092438;28;19930;-79
2022/05/01 09:34:18;;;;;;;;;;;;;;;15.62;100.00;99570.44;5091333;28;19924;-80
2022/05/01 09:36:46;;;;;;;;;;;;;;;15.52;100.00;99563.09;5092310;28;19967;-80
2022/05/01 09:39:19;;;;;;;;;;;;;;;15.60;100.00;99570.09;5094996;28;19931;-80
2022/05/01 09:41:48;;;;;;;;;;;;;;;15.77;100.00;99565.19;5096441;28;19930;-79
2022/05/01 09:44:16;;;;;;;;;;;;;;;15.49;100.00;99568.81;5096139;28;19924;-80
2022/05/01 09:46:44;;;;;;;;;;;;;;;15.62;100.00;99562.00;5094847;28;20367;-80
2022/05/01 09:49:15;;;;;;;;;;;;;;;15.32;100.00;99562.41;5096121;28;19955;-79
2022/05/01 09:51:46;;;;;;;;;;;;;;;14.89;100.00;99564.75;5094461;28;20283;-79
2022/05/01 09:54:21;;;;;;;;;;;;;;;14.64;100.00;99569.41;5095987;28;19924;-79
2022/05/01 09:56:49;;;;;;;;;;;;;;;14.08;100.00;99568.69;5095927;28;20264;-79
2022/05/01 09:59:18;;;;;;;;;;;;;;;13.83;100.00;99574.03;5094883;28;19924;-79
2022/05/01 10:01:55;;;;;;;;;;;;;;;13.63;100.00;99574.03;5097311;28;19924;-79
2022/05/01 10:04:23;;;;;;;;;;;;;;;13.36;100.00;99581.00;5094324;28;19935;-79
2022/05/01 10:06:52;;;;;;;;;;;;;;;13.08;100.00;99587.13;5093972;28;19947;-79
2022/05/01 10:09:20;;;;;;;;;;;;;;;12.79;100.00;99584.00;5094394;28;19924;-79
2022/05/01 10:11:48;;;;;;;;;;;;;;;13.30;100.00;99591.16;5095692;28;19924;-80
2022/05/01 10:14:18;;;;;;;;;;;;;;;13.49;100.00;99582.75;5095005;28;19981;-79
2022/05/01 10:16:45;;;;;;;;;;;;;;;13.78;100.00;99582.97;5094446;28;19959;-79
2022/05/01 10:19:17;;;;;;;;;;;;;;;14.12;100.00;99581.41;5077279;28;19924;-79
2022/05/01 10:21:47;;;;;;;;;;;;;;;13.80;100.00;99580.50;5096395;28;19928;-79
2022/05/01 10:24:15;;;;;;;;;;;;;;;14.11;100.00;99576.25;5080145;28;20001;-79
2022/05/01 10:26:56;;;;;;;;;;;;;;;14.19;100.00;99575.63;5097995;28;19935;-79
2022/05/01 10:29:36;;;;;;;;;;;;;;;13.95;100.00;99570.59;5099103;28;20296;-79
2022/05/01 10:32:22;;;;;;;;;;;;;;;14.38;100.00;99579.66;5093838;28;19978;-79
2022/05/01 10:35:10;;;;;;;;;;;;;;;14.69;100.00;99574.50;5093466;28;19931;-80
2022/05/01 10:37:55;;;;;;;;;;;;;;;14.77;100.00;99571.06;5095017;28;19924;-79
2022/05/01 10:40:23;;;;;;;;;;;;;;;14.98;100.00;99567.72;5094804;28;19924;-80
2022/05/01 10:42:50;;;;;;;;;;;;;;;14.87;100.00;99567.22;5094743;28;19967;-80
2022/05/01 10:45:21;;;;;;;;;;;;;;;14.93;100.00;99568.28;5076569;28;19964;-80
2022/05/01 10:47:48;;;;;;;;;;;;;;;15.33;100.00;99563.97;5076209;28;20429;-79
2022/05/01 10:50:26;;;;;;;;;;;;;;;15.57;100.00;99561.75;5094520;28;19931;-80
2022/05/01 10:53:05;;;;;;;;;;;;;;;16.38;100.00;99554.47;5094552;28;19924;-80
2022/05/01 10:55:48;;;;;;;;;;;;;;;16.47;100.00;99539.72;5093583;28;19924;-80
2022/05/01 10:58:19;;;;;;;;;;;;;;;17.03;100.00;99543.47;5094750;28;19924;-80
2022/05/01 11:00:47;;;;;;;;;;;;;;;17.31;100.00;99536.84;5094750;28;20023;-80
2022/05/01 11:03:23;;;;;;;;;;;;;;;16.48;100.00;99541.31;5094347;28;19924;-80
2022/05/01 11:05:55;;;;;;;;;;;;;;;16.19;100.00;99547.78;5094819;28;20380;-80
2022/05/01 11:08:28;;;;;;;;;;;;;;;16.62;100.00;99529.53;5076661;28;19951;-80
2022/05/01 11:10:58;;;;;;;;;;;;;;;16.25;100.00;99529.06;5076540;28;19932;-79
2022/05/01 11:13:33;;;;;;;;;;;;;;;16.83;100.00;99534.47;5093084;28;19967;-80
2022/05/01 11:16:01;;;;;;;;;;;;;;;17.10;100.00;99526.28;5094078;28;20023;-80
2022/05/01 11:18:28;;;;;;;;;;;;;;;17.43;100.00;99524.69;5094286;28;20023;-80
2022/05/01 11:21:15;;;;;;;;;;;;;;;17.59;100.00;99524.53;5094375;28;20294;-79
2022/05/01 11:23:43;;;;;;;;;;;;;;;17.43;100.00;99514.19;5094101;28;19934;-80
2022/05/01 11:26:13;;;;;;;;;;;;;;;17.38;100.00;99519.63;5094423;28;19924;-80
2022/05/01 11:28:47;;;;;;;;;;;;;;;16.78;100.00;99516.06;5094361;28;20359;-80
2022/05/01 11:31:33;;;;;;;;;;;;;;;17.35;100.00;99514.91;5093045;28;20294;-80
2022/05/01 11:34:16;;;;;;;;;;;;;;;17.89;100.00;99515.31;5094231;28;19956;-80
2022/05/01 11:36:53;;;;;;;;;;;;;;;17.67;100.00;99511.72;5094165;28;19930;-80
2022/05/01 11:39:20;;;;;;;;;;;;;;;17.97;100.00;99502.47;5094196;28;20301;-80
2022/05/01 11:41:59;;;;;;;;;;;;;;;17.82;100.00;99509.94;5092954;28;19935;-80
2022/05/01 11:44:27;;;;;;;;;;;;;;;18.05;100.00;99509.44;5092688;28;20018;-80
2022/05/01 11:46:57;;;;;;;;;;;;;;;16.01;100.00;99518.56;5092582;28;19967;-80
2022/05/01 11:49:27;;;;;;;;;;;;;;;15.49;100.00;99516.09;5092687;28;19924;-80
2022/05/01 11:51:57;;;;;;;;;;;;;;;15.68;100.00;99515.13;5092399;28;20011;-80
2022/05/01 11:54:26;;;;;;;;;;;;;;;16.38;100.00;99508.53;5093919;28;19933;-80
2022/05/01 12:02:25;;;;;;;;;;;;;;;15.11;100.00;99517.16;5074999;28;19959;-80
2022/05/01 12:04:59;;;;;;;;;;;;;;;14.96;100.00;99510.31;5093627;28;19963;-80
2022/05/01 12:07:26;;;;;;;;;;;;;;;15.58;100.00;99507.78;5092335;28;19958;-80
2022/05/01 12:09:55;;;;;;;;;;;;;;;15.44;100.00;99508.19;5093638;28;19931;-79
2022/05/01 12:12:27;;;;;;;;;;;;;;;14.88;100.00;99509.72;5093482;28;20015;-79
2022/05/01 12:14:54;;;;;;;;;;;;;;;15.28;100.00;99510.25;5093332;28;19924;-80
2022/05/01 12:17:21;;;;;;;;;;;;;;;15.24;100.00;99513.16;5092139;28;19931;-80
2022/05/01 12:19:54;;;;;;;;;;;;;;;15.27;100.00;99505.84;5076002;28;19924;-79
2022/05/01 12:22:23;;;;;;;;;;;;;;;15.49;100.00;99507.66;5092340;28;19990;-79
2022/05/01 12:24:54;;;;;;;;;;;;;;;15.84;100.00;99508.63;5092102;28;19970;-80
2022/05/01 12:27:24;;;;;;;;;;;;;;;15.31;100.00;99504.50;5093517;28;20016;-80
2022/05/01 12:29:53;;;;;;;;;;;;;;;15.91;100.00;99509.22;5093362;28;19931;-80
2022/05/01 12:32:20;;;;;;;;;;;;;;;16.36;100.00;99500.53;5093392;28;19931;-80
2022/05/01 12:34:48;;;;;;;;;;;;;;;15.63;100.00;99500.81;5093185;28;20026;-80
2022/05/01 12:37:19;;;;;;;;;;;;;;;15.23;100.00;99497.50;5093220;28;19931;-80
2022/05/01 12:39:58;;;;;;;;;;;;;;;14.86;100.00;99506.53;5093160;28;19931;-79
2022/05/01 12:45:12;;;;;;;;;;;;;;;16.09;100.00;99492.53;5092931;28;19924;-80
2022/05/01 12:47:50;;;;;;;;;;;;;;;16.32;100.00;99501.88;5091616;28;19931;-80
2022/05/01 12:50:20;;;;;;;;;;;;;;;16.78;100.00;99492.72;5092699;28;20384;-80
2022/05/01 12:52:48;;;;;;;;;;;;;;;16.80;100.00;99484.59;5091444;28;19924;-80
2022/05/01 12:55:17;;;;;;;;;;;;;;;16.77;100.00;99491.94;5093097;28;20276;-80
2022/05/01 12:57:51;;;;;;;;;;;;;;;16.82;100.00;99484.94;5091442;28;20081;-80
2022/05/01 13:00:37;;;;;;;;;;;;;;;16.61;100.00;99489.28;5092945;28;19928;-80
2022/05/01 13:03:28;;;;;;;;;;;;;;;16.33;100.00;99486.56;5091761;28;19924;-80
2022/05/01 13:05:55;;;;;;;;;;;;;;;16.31;100.00;99480.59;5091851;28;19924;-80
2022/05/01 13:08:22;;;;;;;;;;;;;;;16.51;100.00;99481.16;5093010;28;19928;-80
2022/05/01 13:11:07;;;;;;;;;;;;;;;16.83;100.00;99469.56;5093135;28;19930;-80
2022/05/01 13:13:48;;;;;;;;;;;;;;;16.56;100.00;99469.28;5094408;28;20371;-80
2022/05/01 13:16:17;;;;;;;;;;;;;;;16.08;100.00;99473.25;5079151;28;19924;-79
2022/05/01 13:18:45;;;;;;;;;;;;;;;15.94;100.00;99468.06;5095784;28;20428;-79
2022/05/01 13:21:12;;;;;;;;;;;;;;;16.44;100.00;99475.75;5096828;28;20007;-79